sensor_id;sensor_type;location;lat;lon;timestamp;P1;durP1;ratioP1;P2;durP2;ratioP2
71759;SDS011;59919;48.112;16.280;2023-12-14T00:01:54;230.15;;;159.20;;
71759;SDS011;59919;48.112;16.280;2023-12-14T00:04:30;199.80;;;140.35;;
71759;SDS011;59919;48.112;16.280;2023-12-14T00:07:06;218.45;;;155.35;;
71759;SDS011;59919;48.112;16.280;2023-12-14T00:09:45;204.05;;;147.98;;
71759;SDS011;59919;48.112;16.280;2023-12-14T00:12:16;201.25;;;143.88;;
71759;SDS011;59919;48.112;16.280;2023-12-14T00:14:47;197.32;;;139.45;;
71759;SDS011;59919;48.112;16.280;2023-12-14T00:17:34;161.23;;;112.38;;
71759;SDS011;59919;48.112;16.280;2023-12-14T00:20:05;167.77;;;114.40;;
71759;SDS011;59919;48.112;16.280;2023-12-14T00:22:42;149.00;;;102.97;;
71759;SDS011;59919;48.112;16.280;2023-12-14T00:25:13;170.23;;;115.53;;
71759;SDS011;59919;48.112;16.280;2023-12-14T00:27:44;171.93;;;118.60;;
71759;SDS011;59919;48.112;16.280;2023-12-14T00:30:15;164.63;;;112.30;;
71759;SDS011;59919;48.112;16.280;2023-12-14T00:32:49;164.43;;;113.22;;
71759;SDS011;59919;48.112;16.280;2023-12-14T00:35:25;161.35;;;112.00;;
71759;SDS011;59919;48.112;16.280;2023-12-14T00:37:56;153.57;;;105.25;;
71759;SDS011;59919;48.112;16.280;2023-12-14T00:40:32;170.45;;;114.82;;
71759;SDS011;59919;48.112;16.280;2023-12-14T00:43:05;178.23;;;121.20;;
71759;SDS011;59919;48.112;16.280;2023-12-14T00:45:41;181.57;;;119.20;;
71759;SDS011;59919;48.112;16.280;2023-12-14T00:48:15;167.55;;;114.50;;
71759;SDS011;59919;48.112;16.280;2023-12-14T00:50:48;174.50;;;119.55;;
71759;SDS011;59919;48.112;16.280;2023-12-14T00:53:22;171.45;;;115.88;;
71759;SDS011;59919;48.112;16.280;2023-12-14T00:55:53;166.93;;;115.82;;
71759;SDS011;59919;48.112;16.280;2023-12-14T00:58:24;172.90;;;117.82;;
71759;SDS011;59919;48.112;16.280;2023-12-14T01:00:58;166.23;;;112.80;;
71759;SDS011;59919;48.112;16.280;2023-12-14T01:03:29;164.27;;;113.63;;
71759;SDS011;59919;48.112;16.280;2023-12-14T01:06:06;190.38;;;130.90;;
71759;SDS011;59919;48.112;16.280;2023-12-14T01:08:40;187.65;;;129.80;;
71759;SDS011;59919;48.112;16.280;2023-12-14T01:11:16;195.18;;;133.15;;
71759;SDS011;59919;48.112;16.280;2023-12-14T01:13:53;180.43;;;125.20;;
71759;SDS011;59919;48.112;16.280;2023-12-14T01:16:25;188.98;;;132.02;;
71759;SDS011;59919;48.112;16.280;2023-12-14T01:18:57;197.02;;;134.77;;
71759;SDS011;59919;48.112;16.280;2023-12-14T01:21:32;187.35;;;128.73;;
71759;SDS011;59919;48.112;16.280;2023-12-14T01:24:03;186.40;;;128.77;;
71759;SDS011;59919;48.112;16.280;2023-12-14T01:26:34;203.23;;;140.40;;
71759;SDS011;59919;48.112;16.280;2023-12-14T01:29:05;181.30;;;121.05;;
71759;SDS011;59919;48.112;16.280;2023-12-14T01:31:37;200.60;;;135.07;;
71759;SDS011;59919;48.112;16.280;2023-12-14T01:34:10;164.95;;;119.97;;
71759;SDS011;59919;48.112;16.280;2023-12-14T01:36:43;189.90;;;128.48;;
71759;SDS011;59919;48.112;16.280;2023-12-14T01:39:14;195.50;;;134.18;;
71759;SDS011;59919;48.112;16.280;2023-12-14T01:41:45;200.48;;;131.38;;
71759;SDS011;59919;48.112;16.280;2023-12-14T01:44:20;190.48;;;129.82;;
71759;SDS011;59919;48.112;16.280;2023-12-14T01:46:54;198.70;;;135.13;;
71759;SDS011;59919;48.112;16.280;2023-12-14T01:49:28;210.40;;;148.68;;
71759;SDS011;59919;48.112;16.280;2023-12-14T01:52:01;345.38;;;248.98;;
71759;SDS011;59919;48.112;16.280;2023-12-14T01:54:35;330.33;;;241.85;;
71759;SDS011;59919;48.112;16.280;2023-12-14T01:57:06;346.05;;;249.27;;
71759;SDS011;59919;48.112;16.280;2023-12-14T01:59:47;371.48;;;268.42;;
71759;SDS011;59919;48.112;16.280;2023-12-14T02:02:19;374.42;;;261.63;;
71759;SDS011;59919;48.112;16.280;2023-12-14T02:04:52;368.70;;;263.50;;
71759;SDS011;59919;48.112;16.280;2023-12-14T02:07:23;371.67;;;264.80;;
71759;SDS011;59919;48.112;16.280;2023-12-14T02:09:57;361.42;;;261.98;;
71759;SDS011;59919;48.112;16.280;2023-12-14T02:12:30;345.15;;;249.63;;
71759;SDS011;59919;48.112;16.280;2023-12-14T02:15:04;347.50;;;246.50;;
71759;SDS011;59919;48.112;16.280;2023-12-14T02:17:41;327.73;;;240.15;;
71759;SDS011;59919;48.112;16.280;2023-12-14T02:20:12;321.88;;;230.02;;
71759;SDS011;59919;48.112;16.280;2023-12-14T02:22:50;333.50;;;242.13;;
71759;SDS011;59919;48.112;16.280;2023-12-14T02:25:24;351.77;;;252.68;;
71759;SDS011;59919;48.112;16.280;2023-12-14T02:27:55;347.35;;;252.88;;
71759;SDS011;59919;48.112;16.280;2023-12-14T02:30:34;376.88;;;271.58;;
71759;SDS011;59919;48.112;16.280;2023-12-14T02:33:08;344.00;;;248.80;;
71759;SDS011;59919;48.112;16.280;2023-12-14T02:35:39;359.00;;;261.65;;
71759;SDS011;59919;48.112;16.280;2023-12-14T02:38:11;348.98;;;253.30;;
71759;SDS011;59919;48.112;16.280;2023-12-14T02:40:44;334.33;;;244.75;;
71759;SDS011;59919;48.112;16.280;2023-12-14T02:43:18;351.90;;;255.02;;
71759;SDS011;59919;48.112;16.280;2023-12-14T02:45:54;338.73;;;245.40;;
71759;SDS011;59919;48.112;16.280;2023-12-14T02:48:32;347.13;;;247.95;;
71759;SDS011;59919;48.112;16.280;2023-12-14T02:51:03;331.20;;;236.10;;
71759;SDS011;59919;48.112;16.280;2023-12-14T02:53:37;352.00;;;252.55;;
71759;SDS011;59919;48.112;16.280;2023-12-14T02:56:12;352.90;;;253.85;;
71759;SDS011;59919;48.112;16.280;2023-12-14T02:58:43;334.77;;;244.18;;
71759;SDS011;59919;48.112;16.280;2023-12-14T03:01:14;330.20;;;243.00;;
71759;SDS011;59919;48.112;16.280;2023-12-14T03:03:45;336.80;;;240.63;;
71759;SDS011;59919;48.112;16.280;2023-12-14T03:06:19;360.92;;;258.88;;
71759;SDS011;59919;48.112;16.280;2023-12-14T03:08:52;354.70;;;252.57;;
71759;SDS011;59919;48.112;16.280;2023-12-14T03:11:24;345.70;;;250.93;;
71759;SDS011;59919;48.112;16.280;2023-12-14T03:13:55;346.20;;;246.70;;
71759;SDS011;59919;48.112;16.280;2023-12-14T03:16:27;335.92;;;241.68;;
71759;SDS011;59919;48.112;16.280;2023-12-14T03:19:00;347.77;;;249.23;;
71759;SDS011;59919;48.112;16.280;2023-12-14T03:21:36;337.80;;;242.25;;
71759;SDS011;59919;48.112;16.280;2023-12-14T03:24:07;343.20;;;243.23;;
71759;SDS011;59919;48.112;16.280;2023-12-14T03:26:39;331.67;;;240.98;;
71759;SDS011;59919;48.112;16.280;2023-12-14T03:29:11;350.05;;;244.50;;
71759;SDS011;59919;48.112;16.280;2023-12-14T03:31:44;342.33;;;243.65;;
71759;SDS011;59919;48.112;16.280;2023-12-14T03:34:20;340.17;;;247.90;;
71759;SDS011;59919;48.112;16.280;2023-12-14T03:36:54;326.35;;;232.88;;
71759;SDS011;59919;48.112;16.280;2023-12-14T03:39:28;338.58;;;244.60;;
71759;SDS011;59919;48.112;16.280;2023-12-14T03:42:00;336.45;;;240.05;;
71759;SDS011;59919;48.112;16.280;2023-12-14T03:44:32;333.92;;;238.73;;
71759;SDS011;59919;48.112;16.280;2023-12-14T03:47:06;335.25;;;243.60;;
71759;SDS011;59919;48.112;16.280;2023-12-14T03:49:37;347.02;;;253.38;;
71759;SDS011;59919;48.112;16.280;2023-12-14T03:52:09;328.42;;;245.73;;
71759;SDS011;59919;48.112;16.280;2023-12-14T03:54:40;323.50;;;233.52;;
71759;SDS011;59919;48.112;16.280;2023-12-14T03:57:14;344.02;;;251.50;;
71759;SDS011;59919;48.112;16.280;2023-12-14T03:59:48;332.75;;;239.32;;
71759;SDS011;59919;48.112;16.280;2023-12-14T04:02:19;301.90;;;221.57;;
71759;SDS011;59919;48.112;16.280;2023-12-14T04:04:53;307.50;;;222.40;;
71759;SDS011;59919;48.112;16.280;2023-12-14T04:07:24;335.02;;;240.88;;
71759;SDS011;59919;48.112;16.280;2023-12-14T04:09:55;296.50;;;219.02;;
71759;SDS011;59919;48.112;16.280;2023-12-14T04:12:28;331.10;;;239.13;;
71759;SDS011;59919;48.112;16.280;2023-12-14T04:14:59;323.75;;;233.50;;
71759;SDS011;59919;48.112;16.280;2023-12-14T04:17:30;320.58;;;232.50;;
71759;SDS011;59919;48.112;16.280;2023-12-14T04:20:09;331.10;;;234.15;;
71759;SDS011;59919;48.112;16.280;2023-12-14T04:22:40;338.13;;;241.43;;
71759;SDS011;59919;48.112;16.280;2023-12-14T04:25:16;306.13;;;229.60;;
71759;SDS011;59919;48.112;16.280;2023-12-14T04:27:49;329.80;;;237.75;;
71759;SDS011;59919;48.112;16.280;2023-12-14T04:30:21;319.02;;;231.93;;
71759;SDS011;59919;48.112;16.280;2023-12-14T04:35:34;328.00;;;232.82;;
71759;SDS011;59919;48.112;16.280;2023-12-14T04:38:07;306.00;;;221.25;;
71759;SDS011;59919;48.112;16.280;2023-12-14T04:40:39;313.48;;;225.55;;
71759;SDS011;59919;48.112;16.280;2023-12-14T04:43:10;298.55;;;214.90;;
71759;SDS011;59919;48.112;16.280;2023-12-14T04:45:43;301.30;;;219.10;;
71759;SDS011;59919;48.112;16.280;2023-12-14T04:48:15;316.20;;;227.20;;
71759;SDS011;59919;48.112;16.280;2023-12-14T04:50:46;298.10;;;214.77;;
71759;SDS011;59919;48.112;16.280;2023-12-14T04:53:20;305.15;;;222.45;;
71759;SDS011;59919;48.112;16.280;2023-12-14T04:55:53;322.92;;;227.60;;
71759;SDS011;59919;48.112;16.280;2023-12-14T04:58:24;303.45;;;220.13;;
71759;SDS011;59919;48.112;16.280;2023-12-14T05:00:55;302.98;;;218.30;;
71759;SDS011;59919;48.112;16.280;2023-12-14T05:03:31;310.45;;;217.63;;
71759;SDS011;59919;48.112;16.280;2023-12-14T05:06:02;304.83;;;220.80;;
71759;SDS011;59919;48.112;16.280;2023-12-14T05:08:33;306.10;;;225.65;;
71759;SDS011;59919;48.112;16.280;2023-12-14T05:11:05;288.80;;;208.77;;
71759;SDS011;59919;48.112;16.280;2023-12-14T05:13:36;325.65;;;231.52;;
71759;SDS011;59919;48.112;16.280;2023-12-14T05:16:13;310.17;;;223.20;;
71759;SDS011;59919;48.112;16.280;2023-12-14T05:18:45;306.77;;;223.90;;
71759;SDS011;59919;48.112;16.280;2023-12-14T05:21:17;295.58;;;216.68;;
71759;SDS011;59919;48.112;16.280;2023-12-14T05:23:48;318.33;;;221.15;;
71759;SDS011;59919;48.112;16.280;2023-12-14T05:26:20;294.48;;;209.32;;
71759;SDS011;59919;48.112;16.280;2023-12-14T05:28:53;294.23;;;207.95;;
71759;SDS011;59919;48.112;16.280;2023-12-14T05:31:29;306.58;;;218.90;;
71759;SDS011;59919;48.112;16.280;2023-12-14T05:34:01;315.98;;;224.63;;
71759;SDS011;59919;48.112;16.280;2023-12-14T05:36:33;299.55;;;213.32;;
71759;SDS011;59919;48.112;16.280;2023-12-14T05:39:06;349.35;;;250.80;;
71759;SDS011;59919;48.112;16.280;2023-12-14T05:41:42;350.55;;;255.48;;
71759;SDS011;59919;48.112;16.280;2023-12-14T05:44:13;302.05;;;219.95;;
71759;SDS011;59919;48.112;16.280;2023-12-14T05:46:45;326.60;;;235.57;;
71759;SDS011;59919;48.112;16.280;2023-12-14T05:49:21;306.95;;;221.02;;
71759;SDS011;59919;48.112;16.280;2023-12-14T05:51:55;317.40;;;224.65;;
71759;SDS011;59919;48.112;16.280;2023-12-14T05:54:27;340.77;;;244.05;;
71759;SDS011;59919;48.112;16.280;2023-12-14T05:56:58;310.88;;;224.38;;
71759;SDS011;59919;48.112;16.280;2023-12-14T05:59:30;320.63;;;229.95;;
71759;SDS011;59919;48.112;16.280;2023-12-14T06:02:04;332.60;;;236.25;;
71759;SDS011;59919;48.112;16.280;2023-12-14T06:04:35;340.83;;;243.43;;
71759;SDS011;59919;48.112;16.280;2023-12-14T06:07:07;378.83;;;262.83;;
71759;SDS011;59919;48.112;16.280;2023-12-14T06:09:41;352.10;;;244.23;;
71759;SDS011;59919;48.112;16.280;2023-12-14T06:12:12;355.83;;;260.42;;
71759;SDS011;59919;48.112;16.280;2023-12-14T06:14:44;329.80;;;236.13;;
71759;SDS011;59919;48.112;16.280;2023-12-14T06:17:15;318.27;;;230.43;;
71759;SDS011;59919;48.112;16.280;2023-12-14T06:19:47;329.20;;;237.98;;
71759;SDS011;59919;48.112;16.280;2023-12-14T06:22:18;338.20;;;244.70;;
71759;SDS011;59919;48.112;16.280;2023-12-14T06:24:50;342.00;;;244.45;;
71759;SDS011;59919;48.112;16.280;2023-12-14T06:27:21;339.48;;;249.02;;
71759;SDS011;59919;48.112;16.280;2023-12-14T06:29:56;332.25;;;244.63;;
71759;SDS011;59919;48.112;16.280;2023-12-14T06:32:30;331.08;;;239.90;;
71759;SDS011;59919;48.112;16.280;2023-12-14T06:35:02;337.38;;;248.95;;
71759;SDS011;59919;48.112;16.280;2023-12-14T06:37:38;355.25;;;249.48;;
71759;SDS011;59919;48.112;16.280;2023-12-14T06:40:14;341.92;;;251.05;;
71759;SDS011;59919;48.112;16.280;2023-12-14T06:42:47;337.90;;;248.65;;
71759;SDS011;59919;48.112;16.280;2023-12-14T06:45:24;335.77;;;239.20;;
71759;SDS011;59919;48.112;16.280;2023-12-14T06:47:58;304.77;;;221.02;;
71759;SDS011;59919;48.112;16.280;2023-12-14T06:50:29;334.20;;;241.30;;
71759;SDS011;59919;48.112;16.280;2023-12-14T06:53:04;339.60;;;246.15;;
71759;SDS011;59919;48.112;16.280;2023-12-14T06:55:38;337.38;;;248.40;;
71759;SDS011;59919;48.112;16.280;2023-12-14T06:58:10;360.40;;;257.25;;
71759;SDS011;59919;48.112;16.280;2023-12-14T07:00:48;354.55;;;254.27;;
71759;SDS011;59919;48.112;16.280;2023-12-14T07:03:20;338.77;;;250.32;;
71759;SDS011;59919;48.112;16.280;2023-12-14T07:05:53;351.88;;;255.48;;
71759;SDS011;59919;48.112;16.280;2023-12-14T07:08:25;347.50;;;256.50;;
71759;SDS011;59919;48.112;16.280;2023-12-14T07:10:56;347.17;;;254.18;;
71759;SDS011;59919;48.112;16.280;2023-12-14T07:13:30;328.25;;;242.82;;
71759;SDS011;59919;48.112;16.280;2023-12-14T07:16:05;336.90;;;250.40;;
71759;SDS011;59919;48.112;16.280;2023-12-14T07:18:41;342.77;;;256.02;;
71759;SDS011;59919;48.112;16.280;2023-12-14T07:21:14;350.00;;;257.60;;
71759;SDS011;59919;48.112;16.280;2023-12-14T07:23:48;344.90;;;253.43;;
71759;SDS011;59919;48.112;16.280;2023-12-14T07:26:24;339.75;;;249.40;;
71759;SDS011;59919;48.112;16.280;2023-12-14T07:28:58;330.63;;;246.93;;
71759;SDS011;59919;48.112;16.280;2023-12-14T07:31:34;329.95;;;246.88;;
71759;SDS011;59919;48.112;16.280;2023-12-14T07:34:05;320.13;;;235.85;;
71759;SDS011;59919;48.112;16.280;2023-12-14T07:36:39;312.95;;;235.20;;
71759;SDS011;59919;48.112;16.280;2023-12-14T07:39:13;337.33;;;253.98;;
71759;SDS011;59919;48.112;16.280;2023-12-14T07:41:44;336.33;;;252.85;;
71759;SDS011;59919;48.112;16.280;2023-12-14T07:44:15;331.98;;;245.10;;
71759;SDS011;59919;48.112;16.280;2023-12-14T07:46:49;326.35;;;239.40;;
71759;SDS011;59919;48.112;16.280;2023-12-14T07:49:20;340.60;;;248.85;;
71759;SDS011;59919;48.112;16.280;2023-12-14T07:51:55;319.20;;;235.05;;
71759;SDS011;59919;48.112;16.280;2023-12-14T07:54:32;295.75;;;219.85;;
71759;SDS011;59919;48.112;16.280;2023-12-14T07:57:03;334.15;;;246.70;;
71759;SDS011;59919;48.112;16.280;2023-12-14T07:59:34;325.77;;;246.80;;
71759;SDS011;59919;48.112;16.280;2023-12-14T08:02:05;340.90;;;251.65;;
71759;SDS011;59919;48.112;16.280;2023-12-14T08:04:36;324.02;;;235.93;;
71759;SDS011;59919;48.112;16.280;2023-12-14T08:07:10;325.90;;;246.27;;
71759;SDS011;59919;48.112;16.280;2023-12-14T08:09:41;329.33;;;242.75;;
71759;SDS011;59919;48.112;16.280;2023-12-14T08:12:12;325.20;;;238.18;;
71759;SDS011;59919;48.112;16.280;2023-12-14T08:14:46;286.92;;;217.55;;
71759;SDS011;59919;48.112;16.280;2023-12-14T08:17:17;327.13;;;243.02;;
71759;SDS011;59919;48.112;16.280;2023-12-14T08:19:54;297.83;;;226.02;;
71759;SDS011;59919;48.112;16.280;2023-12-14T08:22:30;305.17;;;223.52;;
71759;SDS011;59919;48.112;16.280;2023-12-14T08:25:01;303.15;;;224.73;;
71759;SDS011;59919;48.112;16.280;2023-12-14T08:27:34;308.25;;;231.43;;
71759;SDS011;59919;48.112;16.280;2023-12-14T08:30:06;321.02;;;235.40;;
71759;SDS011;59919;48.112;16.280;2023-12-14T08:32:39;289.30;;;209.90;;
71759;SDS011;59919;48.112;16.280;2023-12-14T08:35:10;268.10;;;201.30;;
71759;SDS011;59919;48.112;16.280;2023-12-14T08:37:44;257.90;;;192.23;;
71759;SDS011;59919;48.112;16.280;2023-12-14T08:40:15;235.68;;;169.35;;
71759;SDS011;59919;48.112;16.280;2023-12-14T08:42:47;192.70;;;140.55;;
71759;SDS011;59919;48.112;16.280;2023-12-14T08:45:18;210.38;;;148.43;;
71759;SDS011;59919;48.112;16.280;2023-12-14T08:47:51;227.95;;;157.65;;
71759;SDS011;59919;48.112;16.280;2023-12-14T08:50:22;221.68;;;156.82;;
71759;SDS011;59919;48.112;16.280;2023-12-14T08:52:56;233.50;;;168.63;;
71759;SDS011;59919;48.112;16.280;2023-12-14T08:55:30;264.80;;;182.77;;
71759;SDS011;59919;48.112;16.280;2023-12-14T08:58:05;240.57;;;172.10;;
71759;SDS011;59919;48.112;16.280;2023-12-14T09:00:36;249.07;;;175.32;;
71759;SDS011;59919;48.112;16.280;2023-12-14T09:03:07;258.70;;;182.57;;
71759;SDS011;59919;48.112;16.280;2023-12-14T09:05:41;266.23;;;181.68;;
71759;SDS011;59919;48.112;16.280;2023-12-14T09:08:13;263.77;;;191.38;;
71759;SDS011;59919;48.112;16.280;2023-12-14T09:10:47;247.32;;;178.27;;
71759;SDS011;59919;48.112;16.280;2023-12-14T09:13:21;257.50;;;179.18;;
71759;SDS011;59919;48.112;16.280;2023-12-14T09:15:59;251.85;;;180.98;;
71759;SDS011;59919;48.112;16.280;2023-12-14T09:18:30;252.75;;;179.75;;
71759;SDS011;59919;48.112;16.280;2023-12-14T09:21:01;241.57;;;174.25;;
71759;SDS011;59919;48.112;16.280;2023-12-14T09:23:33;238.25;;;177.65;;
71759;SDS011;59919;48.112;16.280;2023-12-14T09:26:05;217.85;;;155.27;;
71759;SDS011;59919;48.112;16.280;2023-12-14T09:28:36;206.10;;;147.40;;
71759;SDS011;59919;48.112;16.280;2023-12-14T09:31:10;166.02;;;122.88;;
71759;SDS011;59919;48.112;16.280;2023-12-14T09:33:44;162.43;;;114.85;;
71759;SDS011;59919;48.112;16.280;2023-12-14T09:36:18;155.45;;;111.68;;
71759;SDS011;59919;48.112;16.280;2023-12-14T09:38:52;161.02;;;114.20;;
71759;SDS011;59919;48.112;16.280;2023-12-14T09:41:23;157.88;;;109.50;;
71759;SDS011;59919;48.112;16.280;2023-12-14T09:43:57;161.00;;;113.30;;
71759;SDS011;59919;48.112;16.280;2023-12-14T09:46:36;151.57;;;110.32;;
71759;SDS011;59919;48.112;16.280;2023-12-14T09:49:09;154.98;;;112.45;;
71759;SDS011;59919;48.112;16.280;2023-12-14T09:51:43;153.27;;;110.72;;
71759;SDS011;59919;48.112;16.280;2023-12-14T09:54:17;145.82;;;108.18;;
71759;SDS011;59919;48.112;16.280;2023-12-14T09:56:48;154.85;;;108.72;;
71759;SDS011;59919;48.112;16.280;2023-12-14T09:59:21;132.90;;;98.22;;
71759;SDS011;59919;48.112;16.280;2023-12-14T10:02:13;157.30;;;108.38;;
71759;SDS011;59919;48.112;16.280;2023-12-14T10:04:45;146.10;;;102.85;;
71759;SDS011;59919;48.112;16.280;2023-12-14T10:07:18;151.23;;;106.85;;
71759;SDS011;59919;48.112;16.280;2023-12-14T10:09:51;136.93;;;98.57;;
71759;SDS011;59919;48.112;16.280;2023-12-14T10:12:26;139.38;;;101.22;;
71759;SDS011;59919;48.112;16.280;2023-12-14T10:15:02;136.77;;;96.63;;
71759;SDS011;59919;48.112;16.280;2023-12-14T10:17:36;137.95;;;98.82;;
71759;SDS011;59919;48.112;16.280;2023-12-14T10:20:07;134.82;;;96.28;;
71759;SDS011;59919;48.112;16.280;2023-12-14T10:22:40;134.90;;;96.05;;
71759;SDS011;59919;48.112;16.280;2023-12-14T10:25:15;135.25;;;98.43;;
71759;SDS011;59919;48.112;16.280;2023-12-14T10:27:52;130.52;;;93.82;;
71759;SDS011;59919;48.112;16.280;2023-12-14T10:30:31;132.55;;;93.97;;
71759;SDS011;59919;48.112;16.280;2023-12-14T10:33:05;126.70;;;91.88;;
71759;SDS011;59919;48.112;16.280;2023-12-14T10:35:36;124.15;;;89.88;;
71759;SDS011;59919;48.112;16.280;2023-12-14T10:38:10;124.35;;;89.68;;
71759;SDS011;59919;48.112;16.280;2023-12-14T10:40:43;119.63;;;87.38;;
71759;SDS011;59919;48.112;16.280;2023-12-14T10:43:18;115.75;;;83.15;;
71759;SDS011;59919;48.112;16.280;2023-12-14T10:45:55;121.47;;;84.75;;
71759;SDS011;59919;48.112;16.280;2023-12-14T10:48:32;115.78;;;82.65;;
71759;SDS011;59919;48.112;16.280;2023-12-14T10:51:05;125.63;;;84.15;;
71759;SDS011;59919;48.112;16.280;2023-12-14T10:53:41;119.93;;;85.70;;
71759;SDS011;59919;48.112;16.280;2023-12-14T10:56:19;118.07;;;82.15;;
71759;SDS011;59919;48.112;16.280;2023-12-14T10:58:54;114.10;;;80.25;;
71759;SDS011;59919;48.112;16.280;2023-12-14T11:01:30;106.57;;;74.57;;
71759;SDS011;59919;48.112;16.280;2023-12-14T11:04:05;114.15;;;77.88;;
71759;SDS011;59919;48.112;16.280;2023-12-14T11:06:44;111.32;;;76.72;;
71759;SDS011;59919;48.112;16.280;2023-12-14T11:09:19;103.20;;;73.35;;
71759;SDS011;59919;48.112;16.280;2023-12-14T11:11:56;113.53;;;79.13;;
71759;SDS011;59919;48.112;16.280;2023-12-14T11:14:30;111.05;;;77.82;;
71759;SDS011;59919;48.112;16.280;2023-12-14T11:17:05;108.93;;;75.88;;
71759;SDS011;59919;48.112;16.280;2023-12-14T11:19:39;111.10;;;77.00;;
71759;SDS011;59919;48.112;16.280;2023-12-14T11:22:14;107.70;;;74.05;;
71759;SDS011;59919;48.112;16.280;2023-12-14T11:24:57;109.05;;;75.05;;
71759;SDS011;59919;48.112;16.280;2023-12-14T11:27:29;105.03;;;73.15;;
71759;SDS011;59919;48.112;16.280;2023-12-14T11:30:04;101.93;;;71.88;;
71759;SDS011;59919;48.112;16.280;2023-12-14T11:32:39;102.63;;;71.28;;
71759;SDS011;59919;48.112;16.280;2023-12-14T11:35:13;103.57;;;70.68;;
71759;SDS011;59919;48.112;16.280;2023-12-14T11:37:48;100.18;;;69.15;;
71759;SDS011;59919;48.112;16.280;2023-12-14T11:40:20;101.93;;;70.47;;
71759;SDS011;59919;48.112;16.280;2023-12-14T11:43:00;93.72;;;66.35;;
71759;SDS011;59919;48.112;16.280;2023-12-14T11:45:38;96.50;;;68.00;;
71759;SDS011;59919;48.112;16.280;2023-12-14T11:48:11;94.47;;;65.45;;
71759;SDS011;59919;48.112;16.280;2023-12-14T11:50:43;101.15;;;69.20;;
71759;SDS011;59919;48.112;16.280;2023-12-14T11:53:14;95.93;;;65.40;;
71759;SDS011;59919;48.112;16.280;2023-12-14T11:55:46;86.30;;;61.97;;
71759;SDS011;59919;48.112;16.280;2023-12-14T11:58:17;95.97;;;66.25;;
71759;SDS011;59919;48.112;16.280;2023-12-14T12:00:51;96.35;;;64.78;;
71759;SDS011;59919;48.112;16.280;2023-12-14T12:03:23;90.05;;;62.53;;
71759;SDS011;59919;48.112;16.280;2023-12-14T12:05:56;97.90;;;63.28;;
71759;SDS011;59919;48.112;16.280;2023-12-14T12:08:28;89.13;;;60.95;;
71759;SDS011;59919;48.112;16.280;2023-12-14T12:10:59;85.57;;;56.65;;
71759;SDS011;59919;48.112;16.280;2023-12-14T12:13:30;89.70;;;62.63;;
71759;SDS011;59919;48.112;16.280;2023-12-14T12:16:05;84.43;;;58.83;;
71759;SDS011;59919;48.112;16.280;2023-12-14T12:18:38;80.43;;;57.95;;
71759;SDS011;59919;48.112;16.280;2023-12-14T12:21:10;83.55;;;57.28;;
71759;SDS011;59919;48.112;16.280;2023-12-14T12:23:42;83.97;;;56.83;;
71759;SDS011;59919;48.112;16.280;2023-12-14T12:26:15;86.38;;;58.28;;
71759;SDS011;59919;48.112;16.280;2023-12-14T12:28:46;81.50;;;54.28;;
71759;SDS011;59919;48.112;16.280;2023-12-14T12:31:18;83.43;;;55.67;;
71759;SDS011;59919;48.112;16.280;2023-12-14T12:33:49;78.00;;;53.35;;
71759;SDS011;59919;48.112;16.280;2023-12-14T12:36:23;80.82;;;54.63;;
71759;SDS011;59919;48.112;16.280;2023-12-14T12:38:54;75.93;;;51.38;;
71759;SDS011;59919;48.112;16.280;2023-12-14T12:41:25;77.50;;;50.42;;
71759;SDS011;59919;48.112;16.280;2023-12-14T12:43:57;71.55;;;49.35;;
71759;SDS011;59919;48.112;16.280;2023-12-14T12:46:28;77.35;;;51.75;;
71759;SDS011;59919;48.112;16.280;2023-12-14T12:49:04;74.03;;;49.10;;
71759;SDS011;59919;48.112;16.280;2023-12-14T12:51:38;75.82;;;49.65;;
71759;SDS011;59919;48.112;16.280;2023-12-14T12:54:12;70.25;;;48.90;;
71759;SDS011;59919;48.112;16.280;2023-12-14T12:56:43;78.88;;;51.83;;
71759;SDS011;59919;48.112;16.280;2023-12-14T12:59:14;72.57;;;48.92;;
71759;SDS011;59919;48.112;16.280;2023-12-14T13:01:46;74.70;;;48.38;;
71759;SDS011;59919;48.112;16.280;2023-12-14T13:04:18;70.97;;;49.10;;
71759;SDS011;59919;48.112;16.280;2023-12-14T13:06:50;69.05;;;47.63;;
71759;SDS011;59919;48.112;16.280;2023-12-14T13:09:23;69.05;;;46.58;;
71759;SDS011;59919;48.112;16.280;2023-12-14T13:12:00;68.32;;;45.50;;
71759;SDS011;59919;48.112;16.280;2023-12-14T13:17:06;67.45;;;45.45;;
71759;SDS011;59919;48.112;16.280;2023-12-14T13:19:39;69.75;;;46.22;;
71759;SDS011;59919;48.112;16.280;2023-12-14T13:22:13;74.45;;;47.88;;
71759;SDS011;59919;48.112;16.280;2023-12-14T13:24:46;64.80;;;44.97;;
71759;SDS011;59919;48.112;16.280;2023-12-14T13:27:17;64.90;;;45.25;;
71759;SDS011;59919;48.112;16.280;2023-12-14T13:29:48;70.88;;;45.35;;
71759;SDS011;59919;48.112;16.280;2023-12-14T13:32:19;64.88;;;44.78;;
71759;SDS011;59919;48.112;16.280;2023-12-14T13:34:53;69.10;;;44.92;;
71759;SDS011;59919;48.112;16.280;2023-12-14T13:37:24;60.60;;;42.92;;
71759;SDS011;59919;48.112;16.280;2023-12-14T13:39:55;59.90;;;41.85;;
71759;SDS011;59919;48.112;16.280;2023-12-14T13:42:26;61.10;;;42.00;;
71759;SDS011;59919;48.112;16.280;2023-12-14T13:44:58;58.95;;;39.50;;
71759;SDS011;59919;48.112;16.280;2023-12-14T13:47:32;64.57;;;42.58;;
71759;SDS011;59919;48.112;16.280;2023-12-14T13:50:06;59.22;;;42.50;;
71759;SDS011;59919;48.112;16.280;2023-12-14T13:52:37;58.72;;;41.38;;
71759;SDS011;59919;48.112;16.280;2023-12-14T13:55:11;61.17;;;40.38;;
71759;SDS011;59919;48.112;16.280;2023-12-14T13:57:42;60.45;;;39.33;;
71759;SDS011;59919;48.112;16.280;2023-12-14T14:00:13;53.80;;;37.63;;
71759;SDS011;59919;48.112;16.280;2023-12-14T14:02:49;60.00;;;39.40;;
71759;SDS011;59919;48.112;16.280;2023-12-14T14:05:23;59.05;;;39.63;;
71759;SDS011;59919;48.112;16.280;2023-12-14T14:07:56;54.40;;;38.38;;
71759;SDS011;59919;48.112;16.280;2023-12-14T14:10:27;58.88;;;40.80;;
71759;SDS011;59919;48.112;16.280;2023-12-14T14:12:58;55.33;;;38.20;;
71759;SDS011;59919;48.112;16.280;2023-12-14T14:15:30;54.60;;;37.90;;
71759;SDS011;59919;48.112;16.280;2023-12-14T14:18:01;51.97;;;37.10;;
71759;SDS011;59919;48.112;16.280;2023-12-14T14:20:33;54.88;;;37.50;;
71759;SDS011;59919;48.112;16.280;2023-12-14T14:23:06;57.17;;;39.08;;
71759;SDS011;59919;48.112;16.280;2023-12-14T14:25:37;50.67;;;36.13;;
71759;SDS011;59919;48.112;16.280;2023-12-14T14:28:08;48.85;;;34.45;;
71759;SDS011;59919;48.112;16.280;2023-12-14T14:30:39;51.80;;;36.20;;